SFA weather

CLOSED Santa Fé de Antioquía Airport
Santa Fé de Antioquía, Antioquía Department, Colombia

Public forecast

Using degrees Celsius for public forecast. Weather courtesy of forecast.io.

METAR (pilot weather report)

Closest report is Enrique Olaya Herrera Airport, 21.8 nm (40.3 km) SE. Retrieved 2019/02/17 11:00 UTC (59 minutes ago):

SKMD 171100Z 34004KT 9999 SCT030 SCT080 20/16 A3012

TAF (pilot weather forecast)

Forecast is more than 12 hours old.

Closest forecast is Jose Maria Córdova International Airport, 31.2 nm (57.8 km) SE. Retrieved 2019/02/14 06:12 UTC (3 days ago):

TAF SKRG 140500Z 1406/1506 01004KT 8000 VCFG SCT015 SCT080 TEMPO 1409/1412 2000 BR DZ BKN008 BECMG 1415/1417 10008KT TEMPO 1419/1422 7000 VCSH SCT015TCU BECMG 1501/1503 VRB02KT TX24/1419Z TN14/1411Z